Terminal Aerodrome Forecast
Issued by NWS

Current Version | Previous Version | Text Only | Print | Product List | Glossary On
Versions: 1 2 3 4 5 6 7 8 9 10 11 12 13 14 15 16 17 18 19
000
FTUS43 KAPX 210500
TAFAPN
TAF
KAPN 210520Z 2106/2206 01010KT P6SM -DZ OVC020
     FM211400 02012G21KT P6SM OVC020
     FM211800 02009G16KT P6SM BKN025
     FM220000 03006KT P6SM SCT025
     FM220500 05005KT P6SM BKN020=

USA.gov is the U.S. government's official web portal to all federal, state and local government web resources and services.